sensor_id;sensor_type;location;lat;lon;timestamp;pressure;altitude;pressure_sealevel;temperature;humidity
4022;BME280;2025;48.260;16.432;2023-07-29T00:01:27;99402.69;;;21.34;63.97
4022;BME280;2025;48.260;16.432;2023-07-29T00:03:54;99394.41;;;21.36;64.07
4022;BME280;2025;48.260;16.432;2023-07-29T00:06:21;99393.25;;;21.49;63.67
4022;BME280;2025;48.260;16.432;2023-07-29T00:08:48;99396.00;;;21.54;63.28
4022;BME280;2025;48.260;16.432;2023-07-29T00:11:15;99394.75;;;21.61;62.83
4022;BME280;2025;48.260;16.432;2023-07-29T00:13:44;99395.38;;;21.68;62.86
4022;BME280;2025;48.260;16.432;2023-07-29T00:16:12;99394.56;;;21.68;62.92
4022;BME280;2025;48.260;16.432;2023-07-29T00:18:41;99392.50;;;21.75;62.76
4022;BME280;2025;48.260;16.432;2023-07-29T00:21:08;99384.50;;;21.80;62.71
4022;BME280;2025;48.260;16.432;2023-07-29T00:23:35;99391.75;;;21.80;62.57
4022;BME280;2025;48.260;16.432;2023-07-29T00:26:01;99382.63;;;21.81;62.52
4022;BME280;2025;48.260;16.432;2023-07-29T00:28:28;99382.38;;;21.82;62.50
4022;BME280;2025;48.260;16.432;2023-07-29T00:30:57;99371.16;;;21.85;62.45
4022;BME280;2025;48.260;16.432;2023-07-29T00:33:24;99377.63;;;21.89;63.30
4022;BME280;2025;48.260;16.432;2023-07-29T00:35:51;99379.53;;;21.89;63.22
4022;BME280;2025;48.260;16.432;2023-07-29T00:38:18;99378.69;;;21.88;63.17
4022;BME280;2025;48.260;16.432;2023-07-29T00:40:46;99375.75;;;21.90;63.11
4022;BME280;2025;48.260;16.432;2023-07-29T00:43:13;99373.31;;;21.88;62.92
4022;BME280;2025;48.260;16.432;2023-07-29T00:45:43;99377.38;;;21.91;62.85
4022;BME280;2025;48.260;16.432;2023-07-29T00:48:12;99377.06;;;21.87;63.02
4022;BME280;2025;48.260;16.432;2023-07-29T00:50:39;99374.34;;;21.82;63.30
4022;BME280;2025;48.260;16.432;2023-07-29T00:53:06;99366.78;;;21.79;63.66
4022;BME280;2025;48.260;16.432;2023-07-29T00:55:34;99370.22;;;21.75;63.72
4022;BME280;2025;48.260;16.432;2023-07-29T00:58:00;99372.38;;;21.73;63.79
4022;BME280;2025;48.260;16.432;2023-07-29T01:00:28;99374.75;;;21.69;63.80
4022;BME280;2025;48.260;16.432;2023-07-29T01:02:55;99373.66;;;21.70;63.40
4022;BME280;2025;48.260;16.432;2023-07-29T01:05:25;99365.94;;;21.74;63.05
4022;BME280;2025;48.260;16.432;2023-07-29T01:07:58;99369.13;;;21.71;63.44
4022;BME280;2025;48.260;16.432;2023-07-29T01:10:33;99368.44;;;21.80;63.36
4022;BME280;2025;48.260;16.432;2023-07-29T01:13:09;99369.56;;;21.84;63.22
4022;BME280;2025;48.260;16.432;2023-07-29T01:15:43;99369.13;;;21.98;62.25
4022;BME280;2025;48.260;16.432;2023-07-29T01:18:21;99368.38;;;22.02;62.40
4022;BME280;2025;48.260;16.432;2023-07-29T01:20:53;99364.69;;;22.08;62.25
4022;BME280;2025;48.260;16.432;2023-07-29T01:23:25;99371.03;;;22.02;62.25
4022;BME280;2025;48.260;16.432;2023-07-29T01:25:52;99375.03;;;22.00;62.95
4022;BME280;2025;48.260;16.432;2023-07-29T01:28:19;99372.31;;;21.95;62.73
4022;BME280;2025;48.260;16.432;2023-07-29T01:30:49;99365.59;;;21.92;62.79
4022;BME280;2025;48.260;16.432;2023-07-29T01:33:19;99369.84;;;21.88;62.95
4022;BME280;2025;48.260;16.432;2023-07-29T01:35:48;99366.78;;;21.79;62.83
4022;BME280;2025;48.260;16.432;2023-07-29T01:38:19;99375.31;;;21.71;63.19
4022;BME280;2025;48.260;16.432;2023-07-29T01:40:49;99381.16;;;21.68;63.23
4022;BME280;2025;48.260;16.432;2023-07-29T01:43:17;99385.09;;;21.60;63.94
4022;BME280;2025;48.260;16.432;2023-07-29T01:45:49;99387.41;;;21.52;63.68
4022;BME280;2025;48.260;16.432;2023-07-29T01:48:16;99399.69;;;21.48;64.52
4022;BME280;2025;48.260;16.432;2023-07-29T01:50:43;99396.69;;;21.44;63.69
4022;BME280;2025;48.260;16.432;2023-07-29T01:53:10;99399.13;;;21.45;64.28
4022;BME280;2025;48.260;16.432;2023-07-29T01:55:37;99392.91;;;21.40;64.16
4022;BME280;2025;48.260;16.432;2023-07-29T01:58:05;99397.03;;;21.31;64.72
4022;BME280;2025;48.260;16.432;2023-07-29T02:00:32;99389.47;;;21.27;64.84
4022;BME280;2025;48.260;16.432;2023-07-29T02:02:59;99379.84;;;21.26;64.48
4022;BME280;2025;48.260;16.432;2023-07-29T02:05:26;99371.28;;;21.30;64.90
4022;BME280;2025;48.260;16.432;2023-07-29T02:07:53;99375.78;;;21.24;65.11
4022;BME280;2025;48.260;16.432;2023-07-29T02:10:20;99376.53;;;21.19;64.80
4022;BME280;2025;48.260;16.432;2023-07-29T02:12:47;99365.25;;;21.17;65.28
4022;BME280;2025;48.260;16.432;2023-07-29T02:15:15;99366.19;;;21.06;66.16
4022;BME280;2025;48.260;16.432;2023-07-29T02:17:42;99368.72;;;20.96;67.03
4022;BME280;2025;48.260;16.432;2023-07-29T02:20:10;99358.19;;;20.89;67.58
4022;BME280;2025;48.260;16.432;2023-07-29T02:22:37;99354.16;;;20.87;67.23
4022;BME280;2025;48.260;16.432;2023-07-29T02:25:04;99359.72;;;20.85;66.42
4022;BME280;2025;48.260;16.432;2023-07-29T02:27:32;99362.47;;;20.90;65.72
4022;BME280;2025;48.260;16.432;2023-07-29T02:29:59;99376.44;;;20.92;65.45
4022;BME280;2025;48.260;16.432;2023-07-29T02:32:27;99382.09;;;20.96;64.87
4022;BME280;2025;48.260;16.432;2023-07-29T02:34:54;99376.75;;;20.96;64.58
4022;BME280;2025;48.260;16.432;2023-07-29T02:37:21;99371.97;;;20.98;64.01
4022;BME280;2025;48.260;16.432;2023-07-29T02:39:48;99376.25;;;20.99;63.30
4022;BME280;2025;48.260;16.432;2023-07-29T02:42:15;99378.59;;;20.95;63.67
4022;BME280;2025;48.260;16.432;2023-07-29T02:44:42;99383.47;;;20.98;63.14
4022;BME280;2025;48.260;16.432;2023-07-29T02:47:09;99385.03;;;20.94;63.40
4022;BME280;2025;48.260;16.432;2023-07-29T02:49:37;99390.38;;;20.94;63.11
4022;BME280;2025;48.260;16.432;2023-07-29T02:52:04;99390.13;;;20.96;63.65
4022;BME280;2025;48.260;16.432;2023-07-29T02:54:31;99391.19;;;20.95;63.29
4022;BME280;2025;48.260;16.432;2023-07-29T02:56:58;99385.59;;;20.96;63.40
4022;BME280;2025;48.260;16.432;2023-07-29T02:59:26;99395.56;;;21.01;62.96
4022;BME280;2025;48.260;16.432;2023-07-29T03:01:53;99399.84;;;21.02;62.40
4022;BME280;2025;48.260;16.432;2023-07-29T03:04:20;99402.84;;;21.05;61.82
4022;BME280;2025;48.260;16.432;2023-07-29T03:06:48;99394.81;;;21.05;61.72
4022;BME280;2025;48.260;16.432;2023-07-29T03:09:15;99396.19;;;21.08;62.49
4022;BME280;2025;48.260;16.432;2023-07-29T03:11:42;99401.22;;;21.04;62.08
4022;BME280;2025;48.260;16.432;2023-07-29T03:14:09;99395.06;;;21.04;62.19
4022;BME280;2025;48.260;16.432;2023-07-29T03:16:36;99401.16;;;20.99;62.54
4022;BME280;2025;48.260;16.432;2023-07-29T03:19:03;99397.00;;;21.09;61.31
4022;BME280;2025;48.260;16.432;2023-07-29T03:21:31;99398.06;;;21.08;61.55
4022;BME280;2025;48.260;16.432;2023-07-29T03:24:00;99397.16;;;21.02;61.58
4022;BME280;2025;48.260;16.432;2023-07-29T03:26:27;99390.44;;;20.99;61.05
4022;BME280;2025;48.260;16.432;2023-07-29T03:28:54;99391.25;;;21.00;60.83
4022;BME280;2025;48.260;16.432;2023-07-29T03:31:20;99397.34;;;20.95;61.17
4022;BME280;2025;48.260;16.432;2023-07-29T03:33:47;99389.31;;;20.95;60.53
4022;BME280;2025;48.260;16.432;2023-07-29T03:36:14;99396.53;;;20.95;60.11
4022;BME280;2025;48.260;16.432;2023-07-29T03:38:41;99388.03;;;20.98;60.13
4022;BME280;2025;48.260;16.432;2023-07-29T03:41:11;99398.97;;;20.96;60.51
4022;BME280;2025;48.260;16.432;2023-07-29T03:43:38;99402.69;;;20.95;60.36
4022;BME280;2025;48.260;16.432;2023-07-29T03:46:05;99406.44;;;20.94;60.52
4022;BME280;2025;48.260;16.432;2023-07-29T03:48:32;99405.31;;;20.90;60.36
4022;BME280;2025;48.260;16.432;2023-07-29T03:50:59;99404.25;;;20.91;60.45
4022;BME280;2025;48.260;16.432;2023-07-29T03:53:26;99404.50;;;20.90;61.10
4022;BME280;2025;48.260;16.432;2023-07-29T03:55:53;99410.66;;;20.90;61.27
4022;BME280;2025;48.260;16.432;2023-07-29T03:58:21;99404.34;;;20.79;61.92
4022;BME280;2025;48.260;16.432;2023-07-29T04:00:48;99417.41;;;20.76;61.53
4022;BME280;2025;48.260;16.432;2023-07-29T04:03:15;99427.03;;;20.77;60.81
4022;BME280;2025;48.260;16.432;2023-07-29T04:05:42;99423.31;;;20.78;60.51
4022;BME280;2025;48.260;16.432;2023-07-29T04:08:09;99420.47;;;20.84;60.86
4022;BME280;2025;48.260;16.432;2023-07-29T04:10:36;99422.91;;;20.86;60.63
4022;BME280;2025;48.260;16.432;2023-07-29T04:13:03;99417.00;;;20.84;59.87
4022;BME280;2025;48.260;16.432;2023-07-29T04:15:32;99415.13;;;20.84;59.52
4022;BME280;2025;48.260;16.432;2023-07-29T04:17:58;99429.31;;;20.85;59.19
4022;BME280;2025;48.260;16.432;2023-07-29T04:20:25;99427.94;;;20.82;59.76
4022;BME280;2025;48.260;16.432;2023-07-29T04:22:52;99426.06;;;20.83;59.42
4022;BME280;2025;48.260;16.432;2023-07-29T04:25:19;99433.06;;;20.84;59.30
4022;BME280;2025;48.260;16.432;2023-07-29T04:27:46;99441.91;;;20.84;59.75
4022;BME280;2025;48.260;16.432;2023-07-29T04:30:13;99438.88;;;20.81;59.76
4022;BME280;2025;48.260;16.432;2023-07-29T04:32:41;99437.84;;;20.82;59.77
4022;BME280;2025;48.260;16.432;2023-07-29T04:35:10;99438.41;;;20.84;59.79
4022;BME280;2025;48.260;16.432;2023-07-29T04:37:37;99442.69;;;20.85;60.05
4022;BME280;2025;48.260;16.432;2023-07-29T04:40:05;99452.34;;;20.86;59.86
4022;BME280;2025;48.260;16.432;2023-07-29T04:42:32;99448.84;;;20.86;60.02
4022;BME280;2025;48.260;16.432;2023-07-29T04:44:59;99450.16;;;20.83;60.08
4022;BME280;2025;48.260;16.432;2023-07-29T04:47:26;99448.06;;;20.85;60.16
4022;BME280;2025;48.260;16.432;2023-07-29T04:49:54;99457.22;;;20.89;59.70
4022;BME280;2025;48.260;16.432;2023-07-29T04:52:21;99447.09;;;20.91;59.92
4022;BME280;2025;48.260;16.432;2023-07-29T04:54:48;99452.75;;;20.95;59.47
4022;BME280;2025;48.260;16.432;2023-07-29T04:57:15;99449.25;;;20.94;60.33
4022;BME280;2025;48.260;16.432;2023-07-29T04:59:42;99452.75;;;20.95;59.77
4022;BME280;2025;48.260;16.432;2023-07-29T05:02:09;99460.53;;;20.96;59.57
4022;BME280;2025;48.260;16.432;2023-07-29T05:04:36;99455.41;;;20.95;59.82
4022;BME280;2025;48.260;16.432;2023-07-29T05:07:05;99458.66;;;20.97;59.88
4022;BME280;2025;48.260;16.432;2023-07-29T05:09:32;99465.66;;;20.98;60.47
4022;BME280;2025;48.260;16.432;2023-07-29T05:12:00;99466.47;;;20.98;60.28
4022;BME280;2025;48.260;16.432;2023-07-29T05:14:27;99468.66;;;21.01;60.52
4022;BME280;2025;48.260;16.432;2023-07-29T05:16:54;99472.47;;;21.05;60.87
4022;BME280;2025;48.260;16.432;2023-07-29T05:19:21;99469.28;;;21.09;60.29
4022;BME280;2025;48.260;16.432;2023-07-29T05:21:47;99456.69;;;21.09;60.76
4022;BME280;2025;48.260;16.432;2023-07-29T05:24:16;99460.00;;;21.16;60.78
4022;BME280;2025;48.260;16.432;2023-07-29T05:26:43;99463.53;;;21.17;60.93
4022;BME280;2025;48.260;16.432;2023-07-29T05:29:10;99460.91;;;21.22;60.79
4022;BME280;2025;48.260;16.432;2023-07-29T05:31:36;99468.50;;;21.30;60.70
4022;BME280;2025;48.260;16.432;2023-07-29T05:34:03;99467.31;;;21.38;60.47
4022;BME280;2025;48.260;16.432;2023-07-29T05:36:30;99479.63;;;21.39;59.73
4022;BME280;2025;48.260;16.432;2023-07-29T05:38:57;99469.97;;;21.38;59.14
4022;BME280;2025;48.260;16.432;2023-07-29T05:41:25;99472.19;;;21.41;59.91
4022;BME280;2025;48.260;16.432;2023-07-29T05:43:54;99472.47;;;21.44;60.32
4022;BME280;2025;48.260;16.432;2023-07-29T05:46:21;99468.09;;;21.55;59.63
4022;BME280;2025;48.260;16.432;2023-07-29T05:48:48;99471.56;;;21.56;59.14
4022;BME280;2025;48.260;16.432;2023-07-29T05:51:15;99475.88;;;21.57;59.51
4022;BME280;2025;48.260;16.432;2023-07-29T05:53:42;99478.81;;;21.55;59.89
4022;BME280;2025;48.260;16.432;2023-07-29T05:56:09;99472.47;;;21.61;59.55
4022;BME280;2025;48.260;16.432;2023-07-29T05:58:38;99478.06;;;21.60;59.07
4022;BME280;2025;48.260;16.432;2023-07-29T06:01:05;99479.44;;;21.62;59.77
4022;BME280;2025;48.260;16.432;2023-07-29T06:03:32;99480.31;;;21.68;59.49
4022;BME280;2025;48.260;16.432;2023-07-29T06:05:59;99472.28;;;21.68;59.17
4022;BME280;2025;48.260;16.432;2023-07-29T06:08:26;99476.06;;;21.72;59.60
4022;BME280;2025;48.260;16.432;2023-07-29T06:10:54;99478.84;;;21.77;59.26
4022;BME280;2025;48.260;16.432;2023-07-29T06:13:22;99486.59;;;21.79;58.92
4022;BME280;2025;48.260;16.432;2023-07-29T06:15:50;99485.00;;;21.78;59.20
4022;BME280;2025;48.260;16.432;2023-07-29T06:18:17;99480.25;;;21.85;59.08
4022;BME280;2025;48.260;16.432;2023-07-29T06:20:44;99476.88;;;21.95;59.28
4022;BME280;2025;48.260;16.432;2023-07-29T06:23:11;99478.91;;;22.09;58.75
4022;BME280;2025;48.260;16.432;2023-07-29T06:25:38;99482.97;;;22.12;58.49
4022;BME280;2025;48.260;16.432;2023-07-29T06:28:05;99481.53;;;22.04;58.13
4022;BME280;2025;48.260;16.432;2023-07-29T06:30:32;99475.56;;;22.19;59.01
4022;BME280;2025;48.260;16.432;2023-07-29T06:33:00;99477.56;;;22.29;57.51
4022;BME280;2025;48.260;16.432;2023-07-29T06:35:28;99480.53;;;22.33;57.57
4022;BME280;2025;48.260;16.432;2023-07-29T06:37:55;99472.47;;;22.33;57.08
4022;BME280;2025;48.260;16.432;2023-07-29T06:40:22;99478.69;;;22.33;57.85
4022;BME280;2025;48.260;16.432;2023-07-29T06:42:49;99478.69;;;22.33;58.64
4022;BME280;2025;48.260;16.432;2023-07-29T06:45:16;99471.75;;;22.42;58.07
4022;BME280;2025;48.260;16.432;2023-07-29T06:47:43;99474.25;;;22.49;57.18
4022;BME280;2025;48.260;16.432;2023-07-29T06:50:11;99472.69;;;22.53;57.54
4022;BME280;2025;48.260;16.432;2023-07-29T06:52:38;99469.53;;;22.61;57.71
4022;BME280;2025;48.260;16.432;2023-07-29T06:55:06;99473.97;;;22.78;57.81
4022;BME280;2025;48.260;16.432;2023-07-29T06:57:33;99475.59;;;22.84;56.68
4022;BME280;2025;48.260;16.432;2023-07-29T07:00:00;99477.81;;;22.87;56.72
4022;BME280;2025;48.260;16.432;2023-07-29T07:02:28;99465.06;;;23.04;56.41
4022;BME280;2025;48.260;16.432;2023-07-29T07:04:55;99466.31;;;22.97;55.81
4022;BME280;2025;48.260;16.432;2023-07-29T07:07:23;99475.97;;;22.98;55.83
4022;BME280;2025;48.260;16.432;2023-07-29T07:09:50;99479.66;;;22.86;55.99
4022;BME280;2025;48.260;16.432;2023-07-29T07:12:17;99473.06;;;22.67;57.00
4022;BME280;2025;48.260;16.432;2023-07-29T07:14:44;99467.94;;;22.65;57.77
4022;BME280;2025;48.260;16.432;2023-07-29T07:17:11;99466.34;;;22.64;56.78
4022;BME280;2025;48.260;16.432;2023-07-29T07:19:38;99469.84;;;22.70;57.55
4022;BME280;2025;48.260;16.432;2023-07-29T07:22:05;99466.09;;;22.66;57.02
4022;BME280;2025;48.260;16.432;2023-07-29T07:24:33;99473.06;;;22.67;56.93
4022;BME280;2025;48.260;16.432;2023-07-29T07:27:00;99466.91;;;22.66;56.82
4022;BME280;2025;48.260;16.432;2023-07-29T07:29:27;99457.72;;;22.62;57.06
4022;BME280;2025;48.260;16.432;2023-07-29T07:31:56;99452.84;;;22.54;57.01
4022;BME280;2025;48.260;16.432;2023-07-29T07:34:23;99463.25;;;22.50;57.46
4022;BME280;2025;48.260;16.432;2023-07-29T07:36:50;99462.94;;;22.47;58.04
4022;BME280;2025;48.260;16.432;2023-07-29T07:39:17;99458.09;;;22.44;58.27
4022;BME280;2025;48.260;16.432;2023-07-29T07:41:45;99469.34;;;22.41;57.46
4022;BME280;2025;48.260;16.432;2023-07-29T07:44:13;99463.13;;;22.67;58.51
4022;BME280;2025;48.260;16.432;2023-07-29T07:46:43;99442.75;;;22.99;56.71
4022;BME280;2025;48.260;16.432;2023-07-29T07:49:10;99443.91;;;23.13;56.00
4022;BME280;2025;48.260;16.432;2023-07-29T07:51:38;99447.72;;;23.22;56.26
4022;BME280;2025;48.260;16.432;2023-07-29T07:54:05;99446.44;;;23.40;55.16
4022;BME280;2025;48.260;16.432;2023-07-29T07:56:31;99444.56;;;23.35;55.22
4022;BME280;2025;48.260;16.432;2023-07-29T07:59:00;99448.44;;;23.55;55.06
4022;BME280;2025;48.260;16.432;2023-07-29T08:01:27;99438.03;;;23.74;54.43
4022;BME280;2025;48.260;16.432;2023-07-29T08:03:53;99445.38;;;23.99;54.23
4022;BME280;2025;48.260;16.432;2023-07-29T08:06:20;99446.75;;;24.12;55.82
4022;BME280;2025;48.260;16.432;2023-07-29T08:08:47;99434.41;;;24.31;53.08
4022;BME280;2025;48.260;16.432;2023-07-29T08:11:14;99458.69;;;24.57;52.03
4022;BME280;2025;48.260;16.432;2023-07-29T08:13:41;99444.94;;;24.53;50.74
4022;BME280;2025;48.260;16.432;2023-07-29T08:16:09;99445.22;;;24.52;51.51
4022;BME280;2025;48.260;16.432;2023-07-29T08:18:36;99432.84;;;24.51;51.11
4022;BME280;2025;48.260;16.432;2023-07-29T08:21:03;99439.03;;;24.56;49.85
4022;BME280;2025;48.260;16.432;2023-07-29T08:23:31;99438.50;;;24.59;50.72
4022;BME280;2025;48.260;16.432;2023-07-29T08:26:00;99440.66;;;24.57;51.20
4022;BME280;2025;48.260;16.432;2023-07-29T08:28:28;99447.38;;;24.70;51.12
4022;BME280;2025;48.260;16.432;2023-07-29T08:30:55;99436.59;;;24.70;50.79
4022;BME280;2025;48.260;16.432;2023-07-29T08:33:23;99427.44;;;24.87;51.24
4022;BME280;2025;48.260;16.432;2023-07-29T08:35:50;99427.69;;;24.95;50.68
4022;BME280;2025;48.260;16.432;2023-07-29T08:38:17;99423.41;;;24.94;50.38
4022;BME280;2025;48.260;16.432;2023-07-29T08:40:47;99423.88;;;25.12;49.99
4022;BME280;2025;48.260;16.432;2023-07-29T08:43:19;99414.72;;;25.13;49.83
4022;BME280;2025;48.260;16.432;2023-07-29T08:45:49;99415.78;;;25.17;49.31
4022;BME280;2025;48.260;16.432;2023-07-29T08:48:20;99415.50;;;25.29;51.51
4022;BME280;2025;48.260;16.432;2023-07-29T08:50:52;99401.72;;;25.46;50.67
4022;BME280;2025;48.260;16.432;2023-07-29T08:53:20;99412.97;;;25.63;49.10
4022;BME280;2025;48.260;16.432;2023-07-29T08:55:48;99416.41;;;25.74;48.47
4022;BME280;2025;48.260;16.432;2023-07-29T08:58:15;99408.34;;;25.69;48.37
4022;BME280;2025;48.260;16.432;2023-07-29T09:00:43;99399.22;;;25.64;48.98
4022;BME280;2025;48.260;16.432;2023-07-29T09:03:10;99410.00;;;25.64;47.80
4022;BME280;2025;48.260;16.432;2023-07-29T09:05:37;99404.59;;;25.64;48.54
4022;BME280;2025;48.260;16.432;2023-07-29T09:08:06;99406.94;;;25.86;46.85
4022;BME280;2025;48.260;16.432;2023-07-29T09:10:35;99401.22;;;25.93;48.46
4022;BME280;2025;48.260;16.432;2023-07-29T09:13:03;99390.53;;;26.22;47.98
4022;BME280;2025;48.260;16.432;2023-07-29T09:15:31;99397.63;;;26.42;49.07
4022;BME280;2025;48.260;16.432;2023-07-29T09:17:58;99389.00;;;26.40;45.95
4022;BME280;2025;48.260;16.432;2023-07-29T09:20:25;99381.63;;;26.51;45.81
4022;BME280;2025;48.260;16.432;2023-07-29T09:22:55;99382.50;;;26.76;47.38
4022;BME280;2025;48.260;16.432;2023-07-29T09:25:24;99381.75;;;26.70;45.87
4022;BME280;2025;48.260;16.432;2023-07-29T09:27:51;99389.00;;;26.75;45.83
4022;BME280;2025;48.260;16.432;2023-07-29T09:30:19;99371.94;;;26.79;45.27
4022;BME280;2025;48.260;16.432;2023-07-29T09:32:46;99371.75;;;26.41;44.63
4022;BME280;2025;48.260;16.432;2023-07-29T09:35:13;99376.81;;;26.14;45.85
4022;BME280;2025;48.260;16.432;2023-07-29T09:37:40;99381.50;;;26.37;46.09
4022;BME280;2025;48.260;16.432;2023-07-29T09:40:13;99370.53;;;26.53;44.32
4022;BME280;2025;48.260;16.432;2023-07-29T09:42:47;99358.44;;;26.55;44.69
4022;BME280;2025;48.260;16.432;2023-07-29T09:45:20;99353.91;;;26.75;45.53
4022;BME280;2025;48.260;16.432;2023-07-29T09:47:47;99362.59;;;26.96;44.48
4022;BME280;2025;48.260;16.432;2023-07-29T09:50:14;99356.72;;;27.12;44.05
4022;BME280;2025;48.260;16.432;2023-07-29T09:52:42;99355.72;;;27.32;49.66
4022;BME280;2025;48.260;16.432;2023-07-29T09:55:10;99348.41;;;27.33;43.60
4022;BME280;2025;48.260;16.432;2023-07-29T09:57:38;99347.81;;;27.55;45.04
4022;BME280;2025;48.260;16.432;2023-07-29T10:00:09;99351.63;;;27.54;42.68
4022;BME280;2025;48.260;16.432;2023-07-29T10:02:39;99347.25;;;27.58;41.60
4022;BME280;2025;48.260;16.432;2023-07-29T10:05:06;99345.50;;;27.67;40.49
4022;BME280;2025;48.260;16.432;2023-07-29T10:07:36;99341.97;;;27.29;40.92
4022;BME280;2025;48.260;16.432;2023-07-29T10:10:04;99342.19;;;27.32;42.02
4022;BME280;2025;48.260;16.432;2023-07-29T10:12:32;99342.13;;;27.75;41.33
4022;BME280;2025;48.260;16.432;2023-07-29T10:15:02;99337.47;;;28.00;41.35
4022;BME280;2025;48.260;16.432;2023-07-29T10:17:34;99330.53;;;27.94;39.16
4022;BME280;2025;48.260;16.432;2023-07-29T10:20:01;99339.16;;;28.29;40.79
4022;BME280;2025;48.260;16.432;2023-07-29T10:22:36;99333.25;;;28.27;38.67
4022;BME280;2025;48.260;16.432;2023-07-29T10:25:04;99339.78;;;28.26;37.59
4022;BME280;2025;48.260;16.432;2023-07-29T10:27:38;99327.13;;;28.21;37.94
4022;BME280;2025;48.260;16.432;2023-07-29T10:30:10;99330.56;;;28.41;39.39
4022;BME280;2025;48.260;16.432;2023-07-29T10:32:41;99334.84;;;28.47;39.02
4022;BME280;2025;48.260;16.432;2023-07-29T10:35:09;99332.28;;;29.25;38.83
4022;BME280;2025;48.260;16.432;2023-07-29T10:37:36;99338.16;;;29.54;35.77
4022;BME280;2025;48.260;16.432;2023-07-29T10:40:07;99342.25;;;29.79;35.34
4022;BME280;2025;48.260;16.432;2023-07-29T10:42:34;99324.00;;;30.25;33.96
4022;BME280;2025;48.260;16.432;2023-07-29T10:45:17;99325.75;;;30.43;33.68
4022;BME280;2025;48.260;16.432;2023-07-29T10:47:46;99337.69;;;29.89;35.19
4022;BME280;2025;48.260;16.432;2023-07-29T10:50:18;99311.78;;;30.05;35.89
4022;BME280;2025;48.260;16.432;2023-07-29T10:52:49;99318.13;;;30.00;35.27
4022;BME280;2025;48.260;16.432;2023-07-29T10:55:23;99324.16;;;29.75;34.08
4022;BME280;2025;48.260;16.432;2023-07-29T10:57:51;99303.31;;;29.84;33.87
4022;BME280;2025;48.260;16.432;2023-07-29T11:00:19;99300.84;;;29.96;34.78
4022;BME280;2025;48.260;16.432;2023-07-29T11:02:58;99300.91;;;30.05;33.92
4022;BME280;2025;48.260;16.432;2023-07-29T11:05:44;99299.97;;;30.10;32.61
4022;BME280;2025;48.260;16.432;2023-07-29T11:08:29;99290.41;;;29.90;33.70
4022;BME280;2025;48.260;16.432;2023-07-29T11:11:04;99281.25;;;30.62;33.02
4022;BME280;2025;48.260;16.432;2023-07-29T11:13:32;99279.31;;;31.02;31.35
4022;BME280;2025;48.260;16.432;2023-07-29T11:16:00;99276.53;;;31.60;33.17
4022;BME280;2025;48.260;16.432;2023-07-29T11:18:29;99270.41;;;31.98;30.25
4022;BME280;2025;48.260;16.432;2023-07-29T11:20:57;99275.53;;;31.90;29.33
4022;BME280;2025;48.260;16.432;2023-07-29T11:23:29;99270.06;;;31.03;31.45
4022;BME280;2025;48.260;16.432;2023-07-29T11:25:57;99274.00;;;30.88;32.53
4022;BME280;2025;48.260;16.432;2023-07-29T11:28:25;99261.22;;;30.49;31.84
4022;BME280;2025;48.260;16.432;2023-07-29T11:30:53;99266.19;;;29.93;32.74
4022;BME280;2025;48.260;16.432;2023-07-29T11:33:22;99253.63;;;29.61;34.12
4022;BME280;2025;48.260;16.432;2023-07-29T11:35:51;99270.31;;;29.18;34.60
4022;BME280;2025;48.260;16.432;2023-07-29T11:38:19;99269.94;;;28.83;35.03
4022;BME280;2025;48.260;16.432;2023-07-29T11:40:58;99271.16;;;28.63;35.09
4022;BME280;2025;48.260;16.432;2023-07-29T11:43:25;99269.03;;;28.60;36.61
4022;BME280;2025;48.260;16.432;2023-07-29T11:45:52;99269.84;;;28.61;36.50
4022;BME280;2025;48.260;16.432;2023-07-29T11:48:27;99268.84;;;28.56;35.84
4022;BME280;2025;48.260;16.432;2023-07-29T11:50:55;99267.44;;;28.59;36.71
4022;BME280;2025;48.260;16.432;2023-07-29T11:53:26;99266.81;;;28.62;36.97
4022;BME280;2025;48.260;16.432;2023-07-29T11:55:54;99257.00;;;28.66;36.01
4022;BME280;2025;48.260;16.432;2023-07-29T11:58:21;99254.69;;;28.73;36.17
4022;BME280;2025;48.260;16.432;2023-07-29T12:00:48;99249.66;;;28.81;35.63
4022;BME280;2025;48.260;16.432;2023-07-29T12:03:16;99238.94;;;28.62;35.87
4022;BME280;2025;48.260;16.432;2023-07-29T12:05:44;99234.03;;;28.77;35.64
4022;BME280;2025;48.260;16.432;2023-07-29T12:08:13;99233.94;;;29.55;35.46
4022;BME280;2025;48.260;16.432;2023-07-29T12:10:40;99227.56;;;29.96;34.91
4022;BME280;2025;48.260;16.432;2023-07-29T12:13:07;99226.53;;;30.15;34.22
4022;BME280;2025;48.260;16.432;2023-07-29T12:15:35;99229.34;;;30.32;33.33
4022;BME280;2025;48.260;16.432;2023-07-29T12:18:04;99217.03;;;30.83;36.11
4022;BME280;2025;48.260;16.432;2023-07-29T12:20:31;99226.31;;;30.82;31.31
4022;BME280;2025;48.260;16.432;2023-07-29T12:22:59;99220.00;;;31.22;31.08
4022;BME280;2025;48.260;16.432;2023-07-29T12:25:29;99226.56;;;31.64;32.59
4022;BME280;2025;48.260;16.432;2023-07-29T12:27:57;99224.81;;;31.68;30.65
4022;BME280;2025;48.260;16.432;2023-07-29T12:30:28;99230.09;;;31.65;31.16
4022;BME280;2025;48.260;16.432;2023-07-29T12:32:55;99215.63;;;31.82;30.82
4022;BME280;2025;48.260;16.432;2023-07-29T12:35:22;99212.81;;;32.25;31.21
4022;BME280;2025;48.260;16.432;2023-07-29T12:37:58;99199.66;;;32.66;29.74
4022;BME280;2025;48.260;16.432;2023-07-29T12:40:25;99222.94;;;32.84;30.72
4022;BME280;2025;48.260;16.432;2023-07-29T12:42:54;99229.72;;;32.01;32.15
4022;BME280;2025;48.260;16.432;2023-07-29T12:45:21;99231.09;;;30.77;32.87
4022;BME280;2025;48.260;16.432;2023-07-29T12:47:49;99228.25;;;30.33;34.11
4022;BME280;2025;48.260;16.432;2023-07-29T12:50:16;99230.47;;;30.80;32.99
4022;BME280;2025;48.260;16.432;2023-07-29T12:52:43;99220.63;;;31.36;32.54
4022;BME280;2025;48.260;16.432;2023-07-29T12:55:10;99219.19;;;31.82;32.00
4022;BME280;2025;48.260;16.432;2023-07-29T12:57:40;99224.81;;;31.34;31.69
4022;BME280;2025;48.260;16.432;2023-07-29T13:00:11;99224.34;;;30.25;33.89
4022;BME280;2025;48.260;16.432;2023-07-29T13:02:38;99222.91;;;29.97;34.58
4022;BME280;2025;48.260;16.432;2023-07-29T13:05:08;99233.34;;;29.58;36.40
4022;BME280;2025;48.260;16.432;2023-07-29T13:07:36;99218.34;;;29.38;38.50
4022;BME280;2025;48.260;16.432;2023-07-29T13:10:03;99216.75;;;29.37;37.08
4022;BME280;2025;48.260;16.432;2023-07-29T13:12:30;99239.38;;;29.33;37.97
4022;BME280;2025;48.260;16.432;2023-07-29T13:14:57;99218.97;;;29.35;38.42